Time;durP1;ratioP1;P1;durP2;ratioP2;P2;SDS_P1;SDS_P2;PMS_P1;PMS_P2;Temp;Humidity;BMP_temperature;BMP_pressure;BME280_temperature;BME280_humidity;BME280_pressure;Samples;Min_cycle;Max_cycle;Signal;HPM_P1;HPM_P2
2022/04/16 00:00:52;;;;;;;3.42;3.13;;;10.00;99.90;;;;;;5051780;28;20028;-43
2022/04/16 00:03:21;;;;;;;2.80;2.60;;;9.90;99.90;;;;;;5051110;28;20391;-53
2022/04/16 00:05:48;;;;;;;4.90;3.63;;;10.00;99.90;;;;;;5051225;28;20495;-47
2022/04/16 00:08:15;;;;;;;3.45;3.15;;;9.90;99.90;;;;;;5050879;28;20036;-48
2022/04/16 00:10:40;;;;;;;3.50;3.05;;;9.90;99.90;;;;;;5051205;28;20025;-51
2022/04/16 00:13:06;;;;;;;3.92;3.50;;;9.90;99.90;;;;;;5050980;28;20429;-44
2022/04/16 00:15:32;;;;;;;4.07;3.20;;;9.80;99.90;;;;;;5051359;28;20400;-48
2022/04/16 00:17:57;;;;;;;3.88;3.30;;;9.80;99.90;;;;;;5032784;28;20116;-49
2022/04/16 00:20:27;;;;;;;3.25;3.00;;;9.80;99.90;;;;;;5051366;28;20024;-51
2022/04/16 00:22:53;;;;;;;4.20;3.67;;;9.70;99.90;;;;;;5051831;28;20024;-42
2022/04/16 00:25:19;;;;;;;3.45;3.15;;;9.70;99.90;;;;;;5051977;28;20029;-46
2022/04/16 00:27:46;;;;;;;3.60;3.22;;;9.70;99.90;;;;;;5052288;28;20028;-46
2022/04/16 00:30:12;;;;;;;4.10;3.78;;;9.70;99.90;;;;;;5052742;28;20431;-44
2022/04/16 00:32:39;;;;;;;3.35;3.05;;;9.70;99.90;;;;;;5051182;28;20116;-45
2022/04/16 00:35:05;;;;;;;5.40;3.10;;;9.70;99.90;;;;;;5052234;28;20051;-49
2022/04/16 00:37:30;;;;;;;3.75;3.45;;;9.70;99.90;;;;;;5051937;28;20029;-48
2022/04/16 00:39:56;;;;;;;3.42;3.15;;;9.70;99.90;;;;;;5050679;28;20078;-50
2022/04/16 00:42:22;;;;;;;4.63;3.28;;;9.70;99.90;;;;;;5051872;28;20036;-49
2022/04/16 00:44:47;;;;;;;3.70;3.20;;;9.70;99.90;;;;;;5052122;28;20032;-44
2022/04/16 00:47:13;;;;;;;5.20;3.40;;;9.80;99.90;;;;;;5033789;28;20408;-45
2022/04/16 00:49:38;;;;;;;3.28;3.00;;;9.80;99.90;;;;;;5050493;28;20120;-50
2022/04/16 00:52:05;;;;;;;5.38;3.72;;;9.80;99.90;;;;;;5051911;28;20473;-44
2022/04/16 00:54:31;;;;;;;4.65;3.38;;;9.80;99.90;;;;;;5052074;28;20506;-49
2022/04/16 00:56:57;;;;;;;3.72;3.42;;;9.80;99.90;;;;;;5051777;28;20021;-49
2022/04/16 00:59:22;;;;;;;3.95;3.50;;;9.90;99.90;;;;;;5050752;28;20037;-51
2022/04/16 01:01:48;;;;;;;4.20;3.80;;;10.00;99.90;;;;;;5051646;28;20029;-46
2022/04/16 01:04:13;;;;;;;4.70;3.97;;;10.00;99.90;;;;;;5051795;28;20025;-47
2022/04/16 01:06:42;;;;;;;5.55;3.95;;;10.00;99.90;;;;;;5051725;28;20030;-51
2022/04/16 01:09:08;;;;;;;5.50;4.00;;;10.00;99.90;;;;;;5051171;28;20113;-48
2022/04/16 01:11:34;;;;;;;4.95;4.00;;;10.00;99.90;;;;;;5051548;28;20047;-48
2022/04/16 01:14:00;;;;;;;4.40;4.00;;;9.90;99.90;;;;;;5051569;28;20017;-47
2022/04/16 01:16:29;;;;;;;4.65;3.85;;;9.80;99.90;;;;;;5051655;28;20500;-48
2022/04/16 01:18:55;;;;;;;4.00;3.70;;;9.80;99.90;;;;;;5051277;28;20053;-48
2022/04/16 01:21:21;;;;;;;7.43;3.40;;;9.80;99.90;;;;;;5051432;28;20049;-47
2022/04/16 01:23:46;;;;;;;7.13;3.50;;;9.70;99.90;;;;;;5051399;28;20040;-48
2022/04/16 01:26:13;;;;;;;3.95;3.65;;;9.70;99.90;;;;;;5051444;28;20416;-50
2022/04/16 01:28:40;;;;;;;4.13;3.72;;;9.60;99.90;;;;;;5050568;28;20458;-49
2022/04/16 01:31:06;;;;;;;4.63;4.20;;;9.60;99.90;;;;;;5051378;28;20025;-51
2022/04/16 01:33:32;;;;;;;5.13;4.10;;;9.60;99.90;;;;;;5051294;28;20021;-49
2022/04/16 01:35:57;;;;;;;6.93;4.47;;;9.70;99.90;;;;;;5051343;28;20022;-46
2022/04/16 01:38:25;;;;;;;5.32;3.70;;;9.70;99.90;;;;;;5049655;28;20500;-50
2022/04/16 01:40:54;;;;;;;7.97;4.25;;;9.70;99.90;;;;;;5051431;28;20377;-47
2022/04/16 01:43:20;;;;;;;4.68;4.28;;;9.60;99.90;;;;;;5052824;28;20044;-48
2022/04/16 01:45:48;;;;;;;4.68;4.18;;;9.60;99.90;;;;;;5055369;28;20036;-47
2022/04/16 01:48:13;;;;;;;4.15;3.65;;;9.60;99.90;;;;;;5054948;28;20052;-47
2022/04/16 01:50:39;;;;;;;4.72;4.10;;;9.60;99.90;;;;;;5055134;28;20486;-47
2022/04/16 01:53:05;;;;;;;4.65;4.25;;;9.60;99.90;;;;;;5055251;28;20395;-47
2022/04/16 01:55:30;;;;;;;4.53;4.10;;;9.60;99.90;;;;;;5053832;28;20017;-47
2022/04/16 01:57:56;;;;;;;5.05;4.50;;;9.70;99.90;;;;;;5054844;28;20021;-48
2022/04/16 02:00:23;;;;;;;4.45;4.15;;;9.70;99.90;;;;;;5054963;28;20025;-50
2022/04/16 02:02:48;;;;;;;4.55;4.15;;;9.70;99.90;;;;;;5054957;28;20369;-49
2022/04/16 02:05:14;;;;;;;4.97;4.50;;;9.80;99.90;;;;;;5054868;28;20043;-50
2022/04/16 02:07:39;;;;;;;7.00;4.30;;;9.80;99.90;;;;;;5054681;28;20074;-46
2022/04/16 02:10:06;;;;;;;4.97;4.40;;;9.70;99.90;;;;;;5054881;28;20021;-46
2022/04/16 02:12:31;;;;;;;4.47;4.07;;;9.70;99.90;;;;;;5053597;28;20025;-44
2022/04/16 02:14:57;;;;;;;5.13;4.63;;;9.60;99.90;;;;;;5054730;28;20048;-46
2022/04/16 02:17:26;;;;;;;6.93;4.47;;;9.60;99.90;;;;;;5054579;28;20017;-50
2022/04/16 02:19:51;;;;;;;5.25;4.65;;;9.70;99.90;;;;;;5055069;28;20028;-50
2022/04/16 02:22:17;;;;;;;5.15;4.65;;;9.70;99.90;;;;;;5054676;28;20407;-47
2022/04/16 02:24:46;;;;;;;5.68;4.40;;;9.80;99.90;;;;;;5055665;28;20029;-49
2022/04/16 02:27:12;;;;;;;6.70;4.60;;;9.80;99.90;;;;;;5055383;28;20024;-52
2022/04/16 02:29:37;;;;;;;6.28;4.47;;;9.70;99.90;;;;;;5055635;28;20025;-47
2022/04/16 02:32:03;;;;;;;5.10;4.70;;;9.60;99.90;;;;;;5056517;28;20044;-50
2022/04/16 02:34:29;;;;;;;5.18;4.47;;;9.60;99.90;;;;;;5055729;28;20025;-47
2022/04/16 02:36:57;;;;;;;7.50;4.65;;;9.50;99.90;;;;;;5036567;28;20025;-46
2022/04/16 02:39:22;;;;;;;5.50;5.00;;;9.50;99.90;;;;;;5054627;28;20074;-47
2022/04/16 02:41:48;;;;;;;4.93;4.53;;;9.60;99.90;;;;;;5052938;28;20037;-45
2022/04/16 02:47:06;;;;;;;4.57;4.18;;;9.60;99.90;;;;;;5054026;28;20442;-49
2022/04/16 02:49:43;;;;;;;7.00;5.70;;;9.60;99.90;;;;;;5053947;28;20548;-51
2022/04/16 02:52:09;;;;;;;6.22;4.88;;;9.60;99.90;;;;;;5054216;28;20021;-47
2022/04/16 02:54:35;;;;;;;6.32;4.93;;;9.60;99.90;;;;;;5053960;28;20066;-46
2022/04/16 02:57:00;;;;;;;7.15;5.53;;;9.60;99.90;;;;;;5052493;28;20031;-46
2022/04/16 02:59:27;;;;;;;5.82;5.18;;;9.70;99.90;;;;;;5054030;28;20033;-48
2022/04/16 03:01:53;;;;;;;7.25;5.25;;;9.70;99.90;;;;;;5053876;28;20032;-48
2022/04/16 03:04:19;;;;;;;6.35;5.75;;;9.70;99.90;;;;;;5053947;28;20026;-46
2022/04/16 03:06:45;;;;;;;7.00;5.53;;;9.70;99.90;;;;;;5053609;28;20079;-49
2022/04/16 03:09:10;;;;;;;7.18;5.70;;;9.70;99.90;;;;;;5053423;28;20078;-50
2022/04/16 03:11:36;;;;;;;6.18;5.55;;;9.70;99.90;;;;;;5053669;28;20519;-47
2022/04/16 03:17:31;;;;;;;7.03;6.32;;;9.70;99.90;;;;;;5053783;28;20017;-49
2022/04/16 03:19:32;;;;;;;6.60;5.35;;;9.80;99.90;;;;;;5053754;28;20040;-48
2022/04/16 03:21:58;;;;;;;7.95;6.00;;;9.90;99.90;;;;;;5053804;28;20419;-47
2022/04/16 03:24:23;;;;;;;8.75;6.65;;;9.90;99.90;;;;;;5053649;28;20388;-52
2022/04/16 03:26:49;;;;;;;7.68;6.50;;;9.90;99.90;;;;;;5053421;28;20040;-49
2022/04/16 03:29:14;;;;;;;7.43;6.38;;;9.90;99.90;;;;;;5052825;28;20519;-52
2022/04/16 03:31:40;;;;;;;7.68;6.78;;;9.90;99.90;;;;;;5053160;28;20024;-50
2022/04/16 03:34:06;;;;;;;9.93;6.97;;;10.00;99.90;;;;;;5053432;28;20492;-51
2022/04/16 03:36:32;;;;;;;8.18;6.60;;;10.10;99.90;;;;;;5053217;28;20025;-47
2022/04/16 03:38:57;;;;;;;10.30;7.03;;;10.00;99.90;;;;;;5053082;28;20033;-45
2022/04/16 03:41:23;;;;;;;8.82;6.68;;;10.00;99.90;;;;;;5053089;28;20029;-47
2022/04/16 03:43:48;;;;;;;9.20;6.95;;;10.10;99.90;;;;;;5053337;28;20029;-49
2022/04/16 03:46:14;;;;;;;11.65;7.03;;;10.10;99.90;;;;;;5053057;28;20033;-49
2022/04/16 03:48:39;;;;;;;10.85;7.45;;;10.10;99.90;;;;;;5052801;28;20024;-48
2022/04/16 03:51:05;;;;;;;9.73;7.80;;;10.20;99.90;;;;;;5052960;28;20040;-48
2022/04/16 03:53:33;;;;;;;9.68;6.13;;;10.20;99.90;;;;;;5053390;28;20063;-48
2022/04/16 04:01:26;;;;;;;9.43;7.03;;;10.30;99.90;;;;;;5052801;28;20404;-48
2022/04/16 04:03:52;;;;;;;10.23;7.57;;;10.30;99.90;;;;;;5052793;28;20025;-49
2022/04/16 04:06:18;;;;;;;16.65;9.05;;;10.20;99.90;;;;;;5052420;28;20036;-49
2022/04/16 04:08:43;;;;;;;14.35;7.90;;;10.10;99.90;;;;;;5052432;28;20025;-50
2022/04/16 04:11:09;;;;;;;12.15;7.63;;;10.20;99.90;;;;;;5052775;28;20033;-47
2022/04/16 04:13:34;;;;;;;11.90;7.50;;;10.10;99.90;;;;;;5052675;28;20516;-46
2022/04/16 04:16:00;;;;;;;12.48;8.30;;;10.10;99.90;;;;;;5052670;28;20024;-52
2022/04/16 04:18:26;;;;;;;8.27;6.93;;;10.20;99.90;;;;;;5052238;28;20032;-49
2022/04/16 04:20:53;;;;;;;9.07;7.30;;;10.10;99.90;;;;;;5052366;28;20048;-50
2022/04/16 04:23:19;;;;;;;8.15;7.35;;;10.20;99.90;;;;;;5052387;28;20131;-48
2022/04/16 04:25:44;;;;;;;10.82;7.50;;;10.20;99.90;;;;;;5052386;28;20395;-48
2022/04/16 04:28:11;;;;;;;8.68;7.32;;;10.20;99.90;;;;;;5051622;28;20052;-49
2022/04/16 04:30:36;;;;;;;8.90;7.35;;;10.30;99.90;;;;;;5052082;28;20013;-45
2022/04/16 04:33:02;;;;;;;12.10;7.28;;;10.20;99.90;;;;;;5052493;28;20032;-48
2022/04/16 04:35:28;;;;;;;8.63;7.13;;;10.20;99.90;;;;;;5052156;28;20051;-50
2022/04/16 04:37:54;;;;;;;10.35;7.80;;;10.30;99.90;;;;;;5051896;28;20067;-47
2022/04/16 04:40:20;;;;;;;8.75;6.85;;;10.20;99.90;;;;;;5051992;28;20021;-42
2022/04/16 04:42:45;;;;;;;14.90;8.02;;;10.30;99.90;;;;;;5071701;23;20072;-45
2022/04/16 04:45:13;;;;;;;10.68;7.25;;;10.20;99.90;;;;;;5052053;28;20057;-46
2022/04/16 04:47:39;;;;;;;11.50;7.82;;;10.20;99.90;;;;;;5033884;28;20029;-45
2022/04/16 04:50:07;;;;;;;11.63;7.82;;;10.20;99.90;;;;;;5051994;28;20492;-43
2022/04/16 04:52:36;;;;;;;9.63;7.43;;;10.20;99.90;;;;;;5034216;28;20040;-44
2022/04/16 04:55:02;;;;;;;10.68;7.43;;;10.30;99.90;;;;;;5052108;28;20040;-45
2022/04/16 04:57:28;;;;;;;9.77;7.55;;;10.30;99.90;;;;;;5050336;28;20032;-46
2022/04/16 04:59:54;;;;;;;11.45;8.10;;;10.20;99.90;;;;;;5051646;28;20401;-46
2022/04/16 05:02:20;;;;;;;10.50;7.35;;;10.30;99.90;;;;;;5051521;28;20554;-43
2022/04/16 05:04:46;;;;;;;9.05;7.72;;;10.30;99.90;;;;;;5051554;28;20029;-45
2022/04/16 05:07:12;;;;;;;9.80;7.38;;;10.30;99.90;;;;;;5051236;28;20074;-47
2022/04/16 05:09:37;;;;;;;12.05;7.78;;;10.30;99.90;;;;;;5051586;28;20392;-48
2022/04/16 05:12:04;;;;;;;10.35;7.75;;;10.30;99.90;;;;;;5052017;28;20028;-45
2022/04/16 05:14:30;;;;;;;9.80;6.90;;;10.30;99.90;;;;;;5051764;28;20021;-44
2022/04/16 05:16:56;;;;;;;9.88;7.50;;;10.30;99.90;;;;;;5049035;28;20542;-45
2022/04/16 05:19:21;;;;;;;12.00;7.60;;;10.30;99.90;;;;;;5043099;28;20502;-43
2022/04/16 05:21:47;;;;;;;10.65;8.18;;;10.30;99.90;;;;;;5051063;28;20033;-46
2022/04/16 05:24:12;;;;;;;10.40;8.13;;;10.30;99.90;;;;;;5051682;28;20174;-42
2022/04/16 05:26:38;;;;;;;10.35;8.07;;;10.30;99.90;;;;;;5052509;28;20112;-43
2022/04/16 05:29:04;;;;;;;10.23;7.43;;;10.30;99.90;;;;;;5052496;28;20053;-43
2022/04/16 05:31:30;;;;;;;8.98;7.30;;;10.30;99.90;;;;;;5053170;28;20349;-42
2022/04/16 05:36:42;;;;;;;11.90;7.80;;;10.20;99.90;;;;;;5048570;28;20091;-44
2022/04/16 05:39:08;;;;;;;11.63;7.22;;;10.30;99.90;;;;;;5051641;28;20674;-49
2022/04/16 05:41:34;;;;;;;12.48;6.88;;;10.40;99.90;;;;;;5051727;28;20108;-47
2022/04/16 05:44:00;;;;;;;10.27;7.63;;;10.30;99.90;;;;;;5051508;28;20068;-47
2022/04/16 05:46:26;;;;;;;9.43;6.82;;;10.30;99.90;;;;;;5051149;28;20516;-49
2022/04/16 05:48:51;;;;;;;9.55;6.97;;;10.30;99.90;;;;;;5051104;28;20033;-48
2022/04/16 05:51:18;;;;;;;8.45;6.60;;;10.30;99.90;;;;;;5050170;28;20443;-45
2022/04/16 05:53:45;;;;;;;8.98;6.88;;;10.30;99.90;;;;;;5051023;28;20017;-50
2022/04/16 05:56:11;;;;;;;7.88;6.50;;;10.30;99.90;;;;;;5051323;28;20029;-50
2022/04/16 05:58:37;;;;;;;9.98;7.18;;;10.30;99.90;;;;;;5050893;28;20028;-45
2022/04/16 06:01:02;;;;;;;8.77;6.22;;;10.30;99.90;;;;;;5051233;28;20032;-49
2022/04/16 06:03:29;;;;;;;7.18;5.95;;;10.30;99.90;;;;;;5051269;28;20033;-44
2022/04/16 06:05:55;;;;;;;7.93;6.45;;;10.30;99.90;;;;;;5050656;28;20040;-47
2022/04/16 06:08:20;;;;;;;8.00;6.68;;;10.30;99.90;;;;;;5050721;28;20033;-45
2022/04/16 06:10:46;;;;;;;8.05;6.40;;;10.30;99.90;;;;;;5051178;28;20408;-43
2022/04/16 06:13:12;;;;;;;10.60;6.82;;;10.40;99.90;;;;;;5051732;28;20039;-48
2022/04/16 06:15:41;;;;;;;6.88;6.18;;;10.40;99.90;;;;;;5052034;28;20560;-44
2022/04/16 06:18:08;;;;;;;7.18;5.78;;;10.50;99.90;;;;;;5051321;28;20035;-46
2022/04/16 06:20:35;;;;;;;6.95;5.13;;;10.50;99.90;;;;;;5051175;28;20408;-45
2022/04/16 06:23:00;;;;;;;9.15;5.60;;;10.50;99.90;;;;;;5050941;28;20036;-44
2022/04/16 06:25:26;;;;;;;6.40;5.80;;;10.50;99.90;;;;;;5051009;28;20217;-44
2022/04/16 06:27:51;;;;;;;7.97;5.80;;;10.50;99.90;;;;;;5050209;28;20082;-43
2022/04/16 06:30:17;;;;;;;6.70;5.75;;;10.50;99.90;;;;;;5036246;28;20021;-43
2022/04/16 06:32:43;;;;;;;6.75;5.00;;;10.60;99.90;;;;;;5054416;28;20492;-45
2022/04/16 06:35:08;;;;;;;8.77;5.72;;;10.60;99.90;;;;;;5054757;28;20108;-47
2022/04/16 06:37:35;;;;;;;9.02;6.63;;;10.60;99.90;;;;;;5053152;28;20039;-43
2022/04/16 06:40:01;;;;;;;6.10;5.50;;;10.60;99.90;;;;;;5036573;28;20033;-43
2022/04/16 06:42:27;;;;;;;8.18;6.70;;;10.50;99.90;;;;;;5054067;28;20043;-43
2022/04/16 06:44:52;;;;;;;6.78;6.00;;;10.50;99.90;;;;;;5054467;28;20028;-45
2022/04/16 06:47:18;;;;;;;10.00;6.15;;;10.40;99.90;;;;;;5052950;28;20140;-48
2022/04/16 06:49:43;;;;;;;8.73;6.32;;;10.50;99.90;;;;;;5036179;28;20025;-45
2022/04/16 06:52:09;;;;;;;8.15;6.28;;;10.50;99.90;;;;;;5036546;28;20021;-44
2022/04/16 06:54:36;;;;;;;9.40;6.53;;;10.50;99.90;;;;;;5054286;28;20014;-44
2022/04/16 06:57:01;;;;;;;7.35;6.43;;;10.60;99.90;;;;;;5053831;28;20456;-43
2022/04/16 06:59:27;;;;;;;8.20;5.85;;;10.60;99.90;;;;;;5054309;28;20060;-43
2022/04/16 07:01:52;;;;;;;7.60;6.15;;;10.60;99.90;;;;;;5036176;28;20047;-45
2022/04/16 07:04:18;;;;;;;8.93;6.25;;;10.70;99.90;;;;;;5054321;28;20047;-45
2022/04/16 07:06:43;;;;;;;6.60;5.90;;;10.70;99.90;;;;;;5054013;28;20033;-47
2022/04/16 07:09:10;;;;;;;8.52;6.15;;;10.90;99.90;;;;;;5053807;28;20029;-47
2022/04/16 07:11:36;;;;;;;8.48;6.15;;;11.00;99.90;;;;;;5053758;28;20039;-45
2022/04/16 07:14:01;;;;;;;7.20;5.88;;;11.10;99.90;;;;;;5053810;28;20021;-47
2022/04/16 07:16:27;;;;;;;27.65;17.65;;;11.30;99.90;;;;;;5053862;28;20029;-48
2022/04/16 07:18:52;;;;;;;18.30;12.85;;;11.90;99.90;;;;;;5053459;28;20024;-45
2022/04/16 07:21:18;;;;;;;7.18;5.13;;;12.20;99.90;;;;;;5035832;28;20021;-44
2022/04/16 07:23:43;;;;;;;5.38;4.28;;;12.60;99.80;;;;;;5053350;28;20519;-47
2022/04/16 07:26:09;;;;;;;4.70;4.22;;;12.80;99.10;;;;;;5035517;28;20033;-44
2022/04/16 07:28:34;;;;;;;5.03;4.30;;;13.00;98.00;;;;;;5053214;28;20064;-46
2022/04/16 07:31:00;;;;;;;4.70;3.97;;;12.90;97.80;;;;;;5052532;28;20029;-46
2022/04/16 07:33:29;;;;;;;4.30;3.90;;;12.70;97.60;;;;;;5051674;28;20446;-43
2022/04/16 07:35:55;;;;;;;4.53;4.03;;;12.80;97.50;;;;;;5052357;28;20013;-46
2022/04/16 07:38:21;;;;;;;6.32;4.93;;;13.20;97.90;;;;;;5053158;28;20352;-46
2022/04/16 07:40:46;;;;;;;4.05;3.55;;;13.20;97.00;;;;;;5034475;28;20033;-44
2022/04/16 07:43:13;;;;;;;4.07;3.67;;;13.20;96.30;;;;;;5053181;28;20067;-46
2022/04/16 07:45:39;;;;;;;4.78;4.28;;;13.40;96.20;;;;;;5053346;28;20021;-46
2022/04/16 07:48:04;;;;;;;6.20;3.58;;;13.50;96.30;;;;;;5053048;28;20031;-47
2022/04/16 07:50:30;;;;;;;3.50;3.20;;;13.50;95.50;;;;;;5052947;28;20029;-44
2022/04/16 07:52:55;;;;;;;6.57;3.75;;;13.90;95.00;;;;;;5053204;28;20134;-45
2022/04/16 07:55:22;;;;;;;3.03;2.83;;;14.30;94.70;;;;;;5052985;28;20028;-45
2022/04/16 07:57:48;;;;;;;2.65;2.45;;;14.30;93.90;;;;;;5052959;28;20412;-48
2022/04/16 08:00:14;;;;;;;2.90;2.58;;;14.10;93.80;;;;;;5053024;28;20025;-47
2022/04/16 08:02:40;;;;;;;3.13;2.72;;;13.50;94.40;;;;;;5053001;28;20370;-44
2022/04/16 08:05:06;;;;;;;3.00;2.80;;;13.30;94.90;;;;;;5053095;28;20380;-45
2022/04/16 08:07:32;;;;;;;2.60;2.40;;;12.70;95.20;;;;;;5034639;28;20036;-45
2022/04/16 08:09:58;;;;;;;2.30;2.20;;;12.80;95.10;;;;;;5052454;28;20021;-43
2022/04/16 08:12:25;;;;;;;2.50;2.30;;;13.90;93.40;;;;;;5052773;28;20029;-49
2022/04/16 08:14:51;;;;;;;2.75;2.20;;;14.50;92.10;;;;;;5052615;28;20029;-45
2022/04/16 08:17:16;;;;;;;4.68;2.92;;;14.60;92.40;;;;;;5052371;28;20103;-44
2022/04/16 08:19:42;;;;;;;2.67;2.42;;;14.00;92.30;;;;;;5052810;28;20043;-46
2022/04/16 08:22:11;;;;;;;2.97;2.10;;;13.50;93.10;;;;;;5034887;28;20548;-44
2022/04/16 08:27:03;;;;;;;2.53;2.33;;;12.40;94.70;;;;;;5052380;28;20029;-44
2022/04/16 08:29:28;;;;;;;2.92;2.67;;;12.40;95.40;;;;;;5052148;28;20028;-46
2022/04/16 08:31:54;;;;;;;22.60;13.00;;;12.20;95.70;;;;;;5034336;28;20021;-46
2022/04/16 08:34:19;;;;;;;16.67;11.38;;;12.20;95.70;;;;;;5051245;28;20021;-44
2022/04/16 08:36:45;;;;;;;3.38;3.10;;;12.20;95.70;;;;;;5052120;28;20111;-41
2022/04/16 08:39:11;;;;;;;3.17;2.80;;;12.20;96.00;;;;;;5051993;28;20515;-44
2022/04/16 08:41:38;;;;;;;4.10;3.40;;;12.10;95.00;;;;;;5051460;28;20029;-45
2022/04/16 08:44:05;;;;;;;2.70;2.50;;;12.00;95.40;;;;;;5052127;28;20140;-46
2022/04/16 08:46:32;;;;;;;2.63;2.40;;;12.00;95.60;;;;;;5034042;28;20025;-44
2022/04/16 08:48:59;;;;;;;3.33;2.95;;;12.00;95.60;;;;;;5051807;28;20033;-44
2022/04/16 08:51:28;;;;;;;3.05;2.75;;;12.00;95.90;;;;;;5033980;28;20025;-44
2022/04/16 08:53:54;;;;;;;5.90;3.60;;;11.90;96.30;;;;;;5052048;28;20017;-42
2022/04/16 08:56:20;;;;;;;3.80;3.35;;;12.10;96.40;;;;;;5052096;28;20095;-43
2022/04/16 08:58:45;;;;;;;4.60;3.83;;;12.00;96.20;;;;;;5051759;28;20057;-44
2022/04/16 09:01:11;;;;;;;5.65;4.40;;;12.00;96.40;;;;;;5051758;28;20078;-43
2022/04/16 09:03:40;;;;;;;5.50;3.90;;;11.90;96.70;;;;;;5051422;28;20094;-46
2022/04/16 09:06:07;;;;;;;5.22;3.83;;;11.90;96.60;;;;;;5050828;28;20021;-45
2022/04/16 09:08:34;;;;;;;4.95;2.97;;;11.90;96.40;;;;;;5051455;28;20557;-43
2022/04/16 09:11:11;;;;;;;5.07;3.83;;;11.80;96.80;;;;;;5033619;28;20025;-46
2022/04/16 09:13:49;;;;;;;4.70;3.60;;;12.00;96.60;;;;;;5051794;28;20040;-44
2022/04/16 09:16:14;;;;;;;5.25;3.60;;;12.00;96.10;;;;;;5051693;28;20056;-42
2022/04/16 09:18:53;;;;;;;4.70;2.97;;;12.10;96.20;;;;;;5050463;28;20052;-44
2022/04/16 09:21:23;;;;;;;3.45;3.03;;;12.30;95.40;;;;;;5051529;28;20377;-43
2022/04/16 09:23:52;;;;;;;2.97;2.67;;;12.50;95.90;;;;;;5033292;28;20411;-45
2022/04/16 09:26:35;;;;;;;3.78;2.80;;;12.40;94.70;;;;;;5049525;28;20035;-45
2022/04/16 09:29:08;;;;;;;3.10;2.50;;;12.50;94.60;;;;;;5050623;28;20021;-44
2022/04/16 09:31:35;;;;;;;3.10;2.80;;;12.20;94.70;;;;;;5051488;28;20350;-46
2022/04/16 09:34:01;;;;;;;3.05;2.58;;;12.10;95.00;;;;;;5051602;28;20017;-44
2022/04/16 09:36:28;;;;;;;4.15;2.80;;;12.00;94.90;;;;;;5049980;28;20044;-46
2022/04/16 09:39:05;;;;;;;2.70;2.50;;;12.40;95.00;;;;;;5050877;28;20025;-40
2022/04/16 09:41:41;;;;;;;2.92;2.28;;;12.40;94.00;;;;;;5051750;28;20044;-40
2022/04/16 09:44:21;;;;;;;3.20;2.65;;;12.50;94.10;;;;;;5049659;28;20037;-45
2022/04/16 09:46:48;;;;;;;2.53;2.33;;;12.50;93.50;;;;;;5050959;28;20033;-43
2022/04/16 09:49:15;;;;;;;2.42;2.20;;;12.60;92.90;;;;;;5050876;28;20028;-44
2022/04/16 09:51:42;;;;;;;2.60;1.95;;;13.00;92.80;;;;;;5050899;28;20021;-43
2022/04/16 09:54:09;;;;;;;2.95;2.13;;;13.10;91.80;;;;;;5050814;28;20390;-45
2022/04/16 09:56:36;;;;;;;4.35;2.25;;;13.50;92.10;;;;;;5046561;28;20032;-46
2022/04/16 09:59:09;;;;;;;2.30;2.08;;;13.90;91.80;;;;;;5050367;28;20519;-41
2022/04/16 10:01:38;;;;;;;3.17;2.50;;;14.20;91.00;;;;;;5042338;28;20103;-44
2022/04/16 10:04:07;;;;;;;2.42;2.22;;;14.30;90.70;;;;;;5047675;28;20523;-45
2022/04/16 10:06:34;;;;;;;3.00;2.13;;;14.00;90.30;;;;;;5054927;28;20048;-44
2022/04/16 10:09:13;;;;;;;2.65;2.33;;;13.90;90.80;;;;;;5036615;28;20037;-47
2022/04/16 10:12:59;;;;;;;4.13;2.33;;;13.70;91.10;;;;;;5054675;28;20021;-44
2022/04/16 10:14:38;;;;;;;2.85;2.00;;;14.10;91.10;;;;;;5054801;28;20087;-45
2022/04/16 10:17:28;;;;;;;38.83;26.05;;;14.20;90.30;;;;;;5054852;28;20021;-41
2022/04/16 10:19:55;;;;;;;55.30;33.33;;;13.90;90.10;;;;;;5055054;28;20029;-44
2022/04/16 10:22:25;;;;;;;2.97;2.28;;;13.50;90.00;;;;;;5056370;28;20033;-42
2022/04/16 10:24:57;;;;;;;2.53;2.20;;;13.20;90.60;;;;;;5056829;28;20044;-43
2022/04/16 10:27:30;;;;;;;4.45;1.80;;;13.10;90.70;;;;;;5056288;28;20467;-44
2022/04/16 10:30:07;;;;;;;2.08;1.98;;;13.20;91.00;;;;;;5056647;28;20029;-40
2022/04/16 10:32:40;;;;;;;1.85;1.75;;;13.20;90.90;;;;;;5055256;28;20045;-44
2022/04/16 10:35:12;;;;;;;2.53;2.33;;;13.40;90.70;;;;;;5055367;28;20029;-42
2022/04/16 10:37:39;;;;;;;2.20;2.00;;;13.50;90.70;;;;;;5050752;28;20024;-42
2022/04/16 10:40:18;;;;;;;2.42;2.20;;;13.70;91.30;;;;;;5052242;28;20032;-43
2022/04/16 10:42:59;;;;;;;2.40;2.20;;;13.90;89.80;;;;;;5075146;23;20145;-52
2022/04/16 10:45:25;;;;;;;3.28;2.22;;;13.90;89.40;;;;;;5053050;28;20112;-47
2022/04/16 10:47:54;;;;;;;2.20;2.03;;;14.00;89.50;;;;;;5053491;28;20029;-45
2022/04/16 10:50:21;;;;;;;2.45;2.20;;;14.20;88.30;;;;;;5053746;28;20037;-48
2022/04/16 10:52:57;;;;;;;2.40;2.20;;;13.90;87.30;;;;;;5053984;28;20029;-48
2022/04/16 10:55:30;;;;;;;3.08;2.25;;;13.60;88.80;;;;;;5053491;28;20020;-50
2022/04/16 10:58:04;;;;;;;2.70;2.08;;;13.60;87.30;;;;;;5053626;28;20037;-48
2022/04/16 11:00:42;;;;;;;1.88;1.65;;;13.50;88.80;;;;;;5054182;28;20024;-47
2022/04/16 11:03:09;;;;;;;2.05;1.65;;;13.70;87.90;;;;;;5052696;28;20029;-47
2022/04/16 11:05:36;;;;;;;3.45;1.95;;;13.70;88.50;;;;;;5036299;28;20561;-53
2022/04/16 11:08:03;;;;;;;1.70;1.60;;;13.80;88.80;;;;;;5053466;28;20135;-48
2022/04/16 11:10:29;;;;;;;5.90;2.60;;;14.00;89.50;;;;;;5053558;28;20021;-48
2022/04/16 11:12:57;;;;;;;1.80;1.65;;;14.00;84.70;;;;;;5053753;28;20427;-46
2022/04/16 11:15:26;;;;;;;1.65;1.55;;;14.10;85.50;;;;;;5053786;28;20476;-48
2022/04/16 11:18:00;;;;;;;1.95;1.75;;;14.10;85.30;;;;;;5052058;28;20021;-50
2022/04/16 11:20:27;;;;;;;1.60;1.50;;;14.10;83.40;;;;;;5053472;28;20022;-50
2022/04/16 11:22:53;;;;;;;1.63;1.52;;;14.10;81.90;;;;;;5053510;28;20030;-46
2022/04/16 11:25:22;;;;;;;2.05;1.70;;;14.00;82.20;;;;;;5053484;28;20021;-42
2022/04/16 11:36:07;;;;;;;3.28;1.75;;;14.00;82.00;;;;;;5053221;28;20036;-49
2022/04/16 11:38:37;;;;;;;2.13;1.58;;;14.00;79.20;;;;;;5053490;28;20045;-50
2022/04/16 11:41:05;;;;;;;1.55;1.45;;;14.00;79.50;;;;;;5053335;28;20476;-51
2022/04/16 11:43:33;;;;;;;1.38;1.23;;;14.10;78.90;;;;;;5051067;28;20389;-52
2022/04/16 11:46:01;;;;;;;21.08;13.43;;;14.10;79.50;;;;;;5052799;28;20061;-49
2022/04/16 11:48:27;;;;;;;48.58;28.45;;;14.00;78.70;;;;;;5052152;28;20338;-47
2022/04/16 11:50:53;;;;;;;11.00;6.35;;;14.00;79.50;;;;;;5052887;28;20048;-52
2022/04/16 11:53:19;;;;;;;1.27;1.20;;;14.10;78.40;;;;;;5052876;28;20503;-47
2022/04/16 11:55:48;;;;;;;1.63;1.52;;;14.10;79.00;;;;;;5052851;28;20431;-48
2022/04/16 11:58:15;;;;;;;1.42;1.13;;;14.10;78.30;;;;;;5052479;28;20489;-48
2022/04/16 12:00:51;;;;;;;4.25;1.40;;;14.10;77.50;;;;;;5052870;28;20029;-47
2022/04/16 12:03:20;;;;;;;1.13;1.13;;;14.20;76.50;;;;;;5052923;28;20021;-51
2022/04/16 12:05:48;;;;;;;1.60;1.50;;;14.10;76.40;;;;;;5052902;28;20347;-52
2022/04/16 12:08:17;;;;;;;1.92;1.17;;;14.10;77.50;;;;;;5051543;28;20099;-51
2022/04/16 12:10:47;;;;;;;1.20;1.20;;;14.10;77.50;;;;;;5052531;28;20021;-47
2022/04/16 12:13:14;;;;;;;2.20;1.27;;;14.00;78.60;;;;;;5052092;28;20025;-49
2022/04/16 12:15:44;;;;;;;1.02;1.02;;;14.30;76.60;;;;;;5052511;28;20033;-43
2022/04/16 12:18:19;;;;;;;1.58;1.20;;;14.30;79.50;;;;;;5052150;28;20100;-49
2022/04/16 12:20:48;;;;;;;1.43;1.00;;;14.40;76.60;;;;;;5051041;28;20021;-50
2022/04/16 12:23:24;;;;;;;1.20;1.20;;;14.40;76.60;;;;;;5052162;28;20258;-48
2022/04/16 12:25:50;;;;;;;3.20;1.33;;;14.50;74.90;;;;;;5034690;28;20055;-47
2022/04/16 12:28:16;;;;;;;1.98;1.40;;;14.50;75.30;;;;;;5033457;28;20049;-46
2022/04/16 12:30:49;;;;;;;1.20;1.10;;;14.50;76.30;;;;;;5052431;28;20052;-48
2022/04/16 12:33:15;;;;;;;1.20;1.20;;;14.50;74.20;;;;;;5052203;28;20108;-49
2022/04/16 12:35:47;;;;;;;1.30;1.20;;;14.50;73.50;;;;;;5035003;28;20551;-51
2022/04/16 12:38:15;;;;;;;1.33;1.00;;;14.40;73.50;;;;;;5051504;28;20041;-48
2022/04/16 12:40:41;;;;;;;1.40;1.30;;;14.50;74.00;;;;;;5051954;28;20052;-49
2022/04/16 12:43:08;;;;;;;1.73;1.30;;;14.70;72.80;;;;;;5051697;28;20090;-41
2022/04/16 12:45:33;;;;;;;1.73;1.40;;;14.70;72.70;;;;;;5051876;28;20104;-47
2022/04/16 12:48:00;;;;;;;2.45;1.60;;;14.80;71.40;;;;;;5051630;28;20112;-49
2022/04/16 12:50:27;;;;;;;4.07;1.30;;;14.70;71.20;;;;;;5051524;28;20108;-50
2022/04/16 12:52:53;;;;;;;1.17;1.08;;;14.60;70.90;;;;;;5051477;28;20434;-46
2022/04/16 12:55:19;;;;;;;3.22;1.50;;;14.70;71.60;;;;;;5050702;28;20071;-48
2022/04/16 12:57:45;;;;;;;4.20;1.08;;;14.70;69.80;;;;;;5050230;28;20028;-53
2022/04/16 13:00:12;;;;;;;1.35;1.27;;;14.80;69.40;;;;;;5051591;28;20100;-52
2022/04/16 13:02:40;;;;;;;22.92;13.38;;;14.80;69.10;;;;;;5051087;28;20373;-52
2022/04/16 13:05:08;;;;;;;67.82;40.90;;;14.90;68.20;;;;;;5052283;28;20032;-54
2022/04/16 13:07:34;;;;;;;2.50;2.30;;;14.90;69.20;;;;;;5051287;28;20535;-49
2022/04/16 13:10:00;;;;;;;2.92;1.40;;;14.80;69.10;;;;;;5052265;28;20033;-45
2022/04/16 13:12:25;;;;;;;1.52;1.02;;;14.90;68.80;;;;;;5051430;28;20021;-49